Time;durP1;ratioP1;P1;durP2;ratioP2;P2;SDS_P1;SDS_P2;PMS_P1;PMS_P2;Temp;Humidity;BMP_temperature;BMP_pressure;BME280_temperature;BME280_humidity;BME280_pressure;Samples;Min_cycle;Max_cycle;Signal;HPM_P1;HPM_P2
2023/09/14 00:00:46;;;;;;;;;7.25;7.25;;;;;;;;5071944;28;8806;-81
2023/09/14 00:03:13;;;;;;;;;6.50;6.50;;;;;;;;5071403;28;8860;-82
2023/09/14 00:05:40;;;;;;;;;6.50;6.50;;;;;;;;5070428;28;8960;-82
2023/09/14 00:08:09;;;;;;;;;6.75;6.75;;;;;;;;5068787;28;9849;-82
2023/09/14 00:10:36;;;;;;;;;8.25;8.25;;;;;;;;5069510;28;9615;-84
2023/09/14 00:13:04;;;;;;;;;6.75;6.25;;;;;;;;5068806;28;8884;-83
2023/09/14 00:15:32;;;;;;;;;5.75;5.50;;;;;;;;5069310;28;8844;-83
2023/09/14 00:17:59;;;;;;;;;7.00;7.00;;;;;;;;5061633;28;8993;-82
2023/09/14 00:20:27;;;;;;;;;10.00;6.25;;;;;;;;5068236;28;8868;-83
2023/09/14 00:22:56;;;;;;;;;6.00;6.00;;;;;;;;5072328;28;8855;-82
2023/09/14 00:25:25;;;;;;;;;5.75;5.75;;;;;;;;5069224;28;8860;-83
2023/09/14 00:27:54;;;;;;;;;8.50;8.00;;;;;;;;5061883;28;8890;-82
2023/09/14 00:30:22;;;;;;;;;6.75;6.75;;;;;;;;5068449;28;8836;-81
2023/09/14 00:32:50;;;;;;;;;8.00;8.00;;;;;;;;5070431;28;8863;-80
2023/09/14 00:35:19;;;;;;;;;8.25;8.25;;;;;;;;5068687;28;10436;-80
2023/09/14 00:37:47;;;;;;;;;7.25;7.25;;;;;;;;5068933;28;8891;-82
2023/09/14 00:40:15;;;;;;;;;7.75;7.75;;;;;;;;5069108;28;8848;-82
2023/09/14 00:42:45;;;;;;;;;7.00;7.00;;;;;;;;5069159;28;8854;-82
2023/09/14 00:45:14;;;;;;;;;8.25;8.25;;;;;;;;5068598;28;8866;-82
2023/09/14 00:47:42;;;;;;;;;9.00;9.00;;;;;;;;5068203;28;8844;-82
2023/09/14 00:50:11;;;;;;;;;5.75;5.75;;;;;;;;5068922;28;8963;-82
2023/09/14 00:52:38;;;;;;;;;7.50;7.50;;;;;;;;5071159;28;8883;-81
2023/09/14 00:55:07;;;;;;;;;6.75;6.75;;;;;;;;5071766;28;9619;-81
2023/09/14 00:57:35;;;;;;;;;6.75;6.75;;;;;;;;5068619;28;8943;-83
2023/09/14 01:00:06;;;;;;;;;5.75;5.75;;;;;;;;5071456;28;8879;-81
2023/09/14 01:02:34;;;;;;;;;8.75;7.00;;;;;;;;5073581;28;8804;-80
2023/09/14 01:05:03;;;;;;;;;8.00;8.00;;;;;;;;5074244;28;8880;-80
2023/09/14 01:07:30;;;;;;;;;8.25;8.25;;;;;;;;5075029;28;8975;-81
2023/09/14 01:09:57;;;;;;;;;6.50;6.50;;;;;;;;5074082;28;9002;-79
2023/09/14 01:12:25;;;;;;;;;7.25;7.25;;;;;;;;5070986;28;8874;-81
2023/09/14 01:14:57;;;;;;;;;7.00;7.00;;;;;;;;5068044;28;8896;-82
2023/09/14 01:17:39;;;;;;;;;5.75;5.75;;;;;;;;5068040;28;8866;-82
2023/09/14 01:20:21;;;;;;;;;8.00;8.00;;;;;;;;5069007;28;8878;-82
2023/09/14 01:22:57;;;;;;;;;8.25;8.25;;;;;;;;5070177;28;8868;-81
2023/09/14 01:25:37;;;;;;;;;6.75;6.75;;;;;;;;5072104;28;8857;-81
2023/09/14 01:28:08;;;;;;;;;5.50;5.50;;;;;;;;5071677;28;8852;-82
2023/09/14 01:30:37;;;;;;;;;8.00;8.00;;;;;;;;5072209;28;8727;-82
2023/09/14 01:33:05;;;;;;;;;10.00;8.00;;;;;;;;5071990;28;8840;-81
2023/09/14 01:35:37;;;;;;;;;9.50;8.50;;;;;;;;5072227;28;8840;-82
2023/09/14 01:38:05;;;;;;;;;4.00;2.75;;;;;;;;5072856;28;8927;-82
2023/09/14 01:40:36;;;;;;;;;7.75;7.75;;;;;;;;5074466;28;8974;-82
2023/09/14 01:43:04;;;;;;;;;8.00;8.00;;;;;;;;5073766;28;8925;-82
2023/09/14 01:45:34;;;;;;;;;9.00;9.00;;;;;;;;5072556;28;8836;-82
2023/09/14 01:48:01;;;;;;;;;7.75;7.75;;;;;;;;5071959;28;8888;-80
2023/09/14 01:50:29;;;;;;;;;7.50;7.50;;;;;;;;5072646;28;9698;-81
2023/09/14 01:52:57;;;;;;;;;7.75;7.75;;;;;;;;5072437;28;8859;-82
2023/09/14 01:55:24;;;;;;;;;7.75;7.25;;;;;;;;5071798;28;9588;-81
2023/09/14 01:57:52;;;;;;;;;9.75;9.75;;;;;;;;5071555;28;9002;-81
2023/09/14 02:00:25;;;;;;;;;8.25;8.25;;;;;;;;5070569;28;8894;-81
2023/09/14 02:02:53;;;;;;;;;8.75;8.75;;;;;;;;5071677;28;8871;-82
2023/09/14 02:05:20;;;;;;;;;8.25;8.25;;;;;;;;5070843;28;8857;-80
2023/09/14 02:07:47;;;;;;;;;7.50;7.25;;;;;;;;5072046;28;8858;-82
2023/09/14 02:10:15;;;;;;;;;8.00;8.00;;;;;;;;5071021;28;8859;-81
2023/09/14 02:15:32;;;;;;;;;9.50;9.50;;;;;;;;5071218;28;8845;-82
2023/09/14 02:17:59;;;;;;;;;9.25;8.50;;;;;;;;5071183;28;8876;-81
2023/09/14 02:20:26;;;;;;;;;9.75;8.50;;;;;;;;5071580;28;8874;-82
2023/09/14 02:22:53;;;;;;;;;9.25;9.25;;;;;;;;5083292;28;8935;-82
2023/09/14 02:25:23;;;;;;;;;10.75;9.25;;;;;;;;5071599;28;8882;-81
2023/09/14 02:27:53;;;;;;;;;8.75;8.75;;;;;;;;5071390;28;8864;-81
2023/09/14 02:30:21;;;;;;;;;10.25;10.25;;;;;;;;5071626;28;8848;-81
2023/09/14 02:32:50;;;;;;;;;8.00;8.00;;;;;;;;5071864;28;8955;-81
2023/09/14 02:35:17;;;;;;;;;8.25;8.25;;;;;;;;5073498;28;8926;-82
2023/09/14 02:37:44;;;;;;;;;8.00;8.00;;;;;;;;5076673;28;8874;-82
2023/09/14 02:40:12;;;;;;;;;6.50;6.50;;;;;;;;5077376;28;8864;-81
2023/09/14 02:42:39;;;;;;;;;5.00;5.00;;;;;;;;5076652;28;8845;-81
2023/09/14 02:45:07;;;;;;;;;9.25;7.75;;;;;;;;5077070;28;8983;-81
2023/09/14 02:47:35;;;;;;;;;5.25;5.25;;;;;;;;5076766;28;8854;-81
2023/09/14 02:50:04;;;;;;;;;8.00;8.00;;;;;;;;5073068;28;8865;-83
2023/09/14 02:52:34;;;;;;;;;9.00;7.50;;;;;;;;5070343;28;8894;-82
2023/09/14 02:55:02;;;;;;;;;8.25;8.25;;;;;;;;5070704;28;8864;-82
2023/09/14 02:57:30;;;;;;;;;9.25;8.25;;;;;;;;5070200;28;8872;-82
2023/09/14 02:59:59;;;;;;;;;10.75;9.25;;;;;;;;5070762;28;8844;-82
2023/09/14 03:02:28;;;;;;;;;7.50;7.50;;;;;;;;5069756;28;8799;-81
2023/09/14 03:04:55;;;;;;;;;8.50;7.00;;;;;;;;5070945;28;8955;-82
2023/09/14 03:07:24;;;;;;;;;7.25;7.25;;;;;;;;5070404;28;8916;-82
2023/09/14 03:09:51;;;;;;;;;6.25;6.25;;;;;;;;5070441;28;8875;-80
2023/09/14 03:12:18;;;;;;;;;7.25;7.25;;;;;;;;5070352;28;8918;-82
2023/09/14 03:14:46;;;;;;;;;6.50;6.50;;;;;;;;5070333;28;8886;-81
2023/09/14 03:17:13;;;;;;;;;8.00;7.25;;;;;;;;5071988;28;8867;-82
2023/09/14 03:19:42;;;;;;;;;8.75;8.00;;;;;;;;5072310;28;9611;-82
2023/09/14 03:22:10;;;;;;;;;7.75;7.75;;;;;;;;5070984;28;8855;-82
2023/09/14 03:24:38;;;;;;;;;8.75;8.50;;;;;;;;5069756;28;8863;-80
2023/09/14 03:27:06;;;;;;;;;8.25;8.25;;;;;;;;5070136;28;8864;-81
2023/09/14 03:29:36;;;;;;;;;4.00;4.00;;;;;;;;5069739;28;8853;-82
2023/09/14 03:32:03;;;;;;;;;7.00;7.00;;;;;;;;5069605;28;9591;-82
2023/09/14 03:34:30;;;;;;;;;8.75;8.25;;;;;;;;5069495;28;8856;-82
2023/09/14 03:36:58;;;;;;;;;5.75;5.75;;;;;;;;5069594;28;8815;-82
2023/09/14 03:39:28;;;;;;;;;7.00;7.00;;;;;;;;5069859;28;8954;-79
2023/09/14 03:41:56;;;;;;;;;6.00;6.00;;;;;;;;5069758;28;8872;-79
2023/09/14 03:44:24;;;;;;;;;8.25;8.25;;;;;;;;5068944;28;8860;-79
2023/09/14 03:46:51;;;;;;;;;9.75;8.25;;;;;;;;5069504;28;8880;-79
2023/09/14 03:49:19;;;;;;;;;8.00;8.00;;;;;;;;5068229;28;8832;-80
2023/09/14 03:51:46;;;;;;;;;8.25;7.25;;;;;;;;5069030;28;8859;-79
2023/09/14 03:54:13;;;;;;;;;6.50;6.50;;;;;;;;5068186;28;8975;-79
2023/09/14 03:56:41;;;;;;;;;8.50;6.75;;;;;;;;5068595;28;9000;-79
2023/09/14 03:59:09;;;;;;;;;7.25;5.75;;;;;;;;5068918;28;8878;-79
2023/09/14 04:01:36;;;;;;;;;6.25;6.25;;;;;;;;5068566;28;8823;-79
2023/09/14 04:04:04;;;;;;;;;6.50;6.50;;;;;;;;5068033;28;8856;-78
2023/09/14 04:06:33;;;;;;;;;6.50;6.50;;;;;;;;5069339;28;8896;-84
2023/09/14 04:09:00;;;;;;;;;7.75;7.75;;;;;;;;5075761;28;8898;-82
2023/09/14 04:11:27;;;;;;;;;6.00;6.00;;;;;;;;5069020;28;8867;-82
2023/09/14 04:13:56;;;;;;;;;7.75;7.75;;;;;;;;5069307;28;9627;-81
2023/09/14 04:16:28;;;;;;;;;8.50;5.25;;;;;;;;5070193;28;8983;-79
2023/09/14 04:19:00;;;;;;;;;7.50;5.75;;;;;;;;5071141;28;8860;-79
2023/09/14 04:21:30;;;;;;;;;5.50;5.50;;;;;;;;5072598;28;8875;-80
2023/09/14 04:23:59;;;;;;;;;7.75;7.75;;;;;;;;5073419;28;8864;-80
2023/09/14 04:26:29;;;;;;;;;9.00;7.50;;;;;;;;5071937;28;8937;-78
2023/09/14 04:28:57;;;;;;;;;9.00;9.00;;;;;;;;5072767;28;8856;-77
2023/09/14 04:31:26;;;;;;;;;7.75;7.75;;;;;;;;5059094;28;8796;-82
2023/09/14 04:33:53;;;;;;;;;7.25;7.25;;;;;;;;5069291;28;8859;-80
2023/09/14 04:36:20;;;;;;;;;9.00;7.00;;;;;;;;5069541;28;8864;-78
2023/09/14 04:38:48;;;;;;;;;8.75;7.75;;;;;;;;5068790;28;8845;-79
2023/09/14 04:41:15;;;;;;;;;7.75;7.75;;;;;;;;5068326;28;8837;-80
2023/09/14 04:43:45;;;;;;;;;7.25;7.25;;;;;;;;5067818;28;9003;-81
2023/09/14 04:46:13;;;;;;;;;9.00;9.00;;;;;;;;5067480;28;8973;-77
2023/09/14 04:48:45;;;;;;;;;7.75;6.25;;;;;;;;5068209;28;8848;-82
2023/09/14 04:51:14;;;;;;;;;6.00;6.00;;;;;;;;5068352;28;8837;-80
2023/09/14 04:53:44;;;;;;;;;7.50;7.50;;;;;;;;5067850;28;8888;-79
2023/09/14 04:56:17;;;;;;;;;7.75;7.75;;;;;;;;5056716;28;8925;-78
2023/09/14 04:58:44;;;;;;;;;7.75;7.75;;;;;;;;5067718;28;8990;-78
2023/09/14 05:01:17;;;;;;;;;10.00;10.00;;;;;;;;5068952;28;8835;-78
2023/09/14 05:03:46;;;;;;;;;8.00;7.25;;;;;;;;5067429;28;8886;-78
2023/09/14 05:06:13;;;;;;;;;6.00;6.00;;;;;;;;5068319;28;8883;-81
2023/09/14 05:08:42;;;;;;;;;6.25;6.25;;;;;;;;5067144;28;8983;-79
2023/09/14 05:11:09;;;;;;;;;8.00;8.00;;;;;;;;5067822;28;8861;-81
2023/09/14 05:13:36;;;;;;;;;9.00;9.00;;;;;;;;5067688;28;8840;-79
2023/09/14 05:16:04;;;;;;;;;8.75;7.75;;;;;;;;5067622;28;8848;-79
2023/09/14 05:18:31;;;;;;;;;7.75;7.25;;;;;;;;5067031;28;8898;-71
2023/09/14 05:21:05;;;;;;;;;6.00;6.00;;;;;;;;5068059;28;8921;-72
2023/09/14 05:23:32;;;;;;;;;11.50;8.75;;;;;;;;5067326;28;8868;-73
2023/09/14 05:26:00;;;;;;;;;9.00;9.00;;;;;;;;5066952;28;8852;-72
2023/09/14 05:28:29;;;;;;;;;10.00;8.00;;;;;;;;5067125;28;8863;-73
2023/09/14 05:30:56;;;;;;;;;10.50;8.75;;;;;;;;5066620;28;8781;-70
2023/09/14 05:33:25;;;;;;;;;8.00;8.00;;;;;;;;5067417;28;8997;-71
2023/09/14 05:35:56;;;;;;;;;8.00;7.75;;;;;;;;5067133;28;8884;-76
2023/09/14 05:38:25;;;;;;;;;7.75;7.75;;;;;;;;5068313;28;8848;-77
2023/09/14 05:40:53;;;;;;;;;10.00;10.00;;;;;;;;5066801;28;8876;-72
2023/09/14 05:43:20;;;;;;;;;10.00;10.00;;;;;;;;5068342;28;8939;-72
2023/09/14 05:45:47;;;;;;;;;8.75;8.75;;;;;;;;5066333;28;8852;-71
2023/09/14 05:48:14;;;;;;;;;7.00;7.00;;;;;;;;5067280;28;9238;-78
2023/09/14 05:50:42;;;;;;;;;8.50;8.50;;;;;;;;5067402;28;8875;-70
2023/09/14 05:53:11;;;;;;;;;7.00;7.00;;;;;;;;5068964;28;8857;-71
2023/09/14 05:55:40;;;;;;;;;10.00;10.00;;;;;;;;5069310;28;8865;-71
2023/09/14 05:58:07;;;;;;;;;9.25;9.25;;;;;;;;5069684;28;8848;-70
2023/09/14 06:00:37;;;;;;;;;8.25;8.25;;;;;;;;5069338;28;8809;-70
2023/09/14 06:03:07;;;;;;;;;10.00;10.00;;;;;;;;5070578;28;8867;-71
2023/09/14 06:05:34;;;;;;;;;9.25;8.75;;;;;;;;5067627;28;8872;-71
2023/09/14 06:08:02;;;;;;;;;9.00;9.00;;;;;;;;5053835;28;8838;-76
2023/09/14 06:10:29;;;;;;;;;8.25;8.25;;;;;;;;5070033;28;8848;-72
2023/09/14 06:12:58;;;;;;;;;8.75;8.75;;;;;;;;5070346;28;8840;-71
2023/09/14 06:15:25;;;;;;;;;10.50;10.50;;;;;;;;5068125;28;9646;-71
2023/09/14 06:17:52;;;;;;;;;11.50;9.25;;;;;;;;5070686;28;8876;-71
2023/09/14 06:20:21;;;;;;;;;8.00;8.00;;;;;;;;5071450;28;8874;-71
2023/09/14 06:22:48;;;;;;;;;9.00;9.00;;;;;;;;5069806;28;8860;-71
2023/09/14 06:25:15;;;;;;;;;8.50;8.25;;;;;;;;5070091;28;8886;-74
2023/09/14 06:27:44;;;;;;;;;12.00;12.00;;;;;;;;5069389;28;8852;-75
2023/09/14 06:30:13;;;;;;;;;11.25;11.25;;;;;;;;5069979;28;8849;-78
2023/09/14 06:32:41;;;;;;;;;12.00;12.00;;;;;;;;5069516;28;8840;-71
2023/09/14 06:35:10;;;;;;;;;9.50;9.50;;;;;;;;5058517;28;8856;-71
2023/09/14 06:37:37;;;;;;;;;11.75;11.75;;;;;;;;5069264;28;8968;-73
2023/09/14 06:40:07;;;;;;;;;10.00;10.00;;;;;;;;5069938;28;8836;-74
2023/09/14 06:42:34;;;;;;;;;11.50;10.25;;;;;;;;5069829;28;8925;-71
2023/09/14 06:45:01;;;;;;;;;10.75;9.50;;;;;;;;5069102;28;8828;-78
2023/09/14 06:47:30;;;;;;;;;11.00;11.00;;;;;;;;5069329;28;8864;-73
2023/09/14 06:49:57;;;;;;;;;12.75;12.75;;;;;;;;5068769;28;8856;-76
2023/09/14 06:52:30;;;;;;;;;14.25;14.25;;;;;;;;5069527;28;9635;-71
2023/09/14 06:54:58;;;;;;;;;10.75;9.25;;;;;;;;5070223;28;8886;-70
2023/09/14 06:57:29;;;;;;;;;14.00;14.00;;;;;;;;5070680;28;8882;-71
2023/09/14 06:59:56;;;;;;;;;12.00;12.00;;;;;;;;5069903;28;8872;-70
2023/09/14 07:02:24;;;;;;;;;11.00;11.00;;;;;;;;5069257;28;8832;-71
2023/09/14 07:04:52;;;;;;;;;14.00;14.00;;;;;;;;5069484;28;8856;-71
2023/09/14 07:07:19;;;;;;;;;16.50;14.00;;;;;;;;5069021;28;8959;-73
2023/09/14 07:09:47;;;;;;;;;12.00;11.00;;;;;;;;5068774;28;8867;-71
2023/09/14 07:12:14;;;;;;;;;16.75;16.75;;;;;;;;5069235;28;8879;-71
2023/09/14 07:14:41;;;;;;;;;15.00;15.00;;;;;;;;5069232;28;8844;-70
2023/09/14 07:17:09;;;;;;;;;21.75;18.00;;;;;;;;5067688;28;9611;-72
2023/09/14 07:19:37;;;;;;;;;17.50;17.50;;;;;;;;5068557;28;8872;-71
2023/09/14 07:22:05;;;;;;;;;12.25;12.25;;;;;;;;5069025;28;8852;-70
2023/09/14 07:24:33;;;;;;;;;16.50;16.50;;;;;;;;5069480;28;8874;-70
2023/09/14 07:27:03;;;;;;;;;18.00;15.00;;;;;;;;5068936;28;8864;-74
2023/09/14 07:29:30;;;;;;;;;14.75;14.00;;;;;;;;5069450;28;8848;-70
2023/09/14 07:31:57;;;;;;;;;14.75;13.50;;;;;;;;5070273;28;8813;-71
2023/09/14 07:34:27;;;;;;;;;18.00;15.50;;;;;;;;5072010;28;8871;-73
2023/09/14 07:36:55;;;;;;;;;13.50;13.50;;;;;;;;5071703;28;8867;-71
2023/09/14 07:39:23;;;;;;;;;15.00;15.00;;;;;;;;5072482;28;8864;-71
2023/09/14 07:41:55;;;;;;;;;15.25;15.25;;;;;;;;5071615;28;8871;-72
2023/09/14 07:44:22;;;;;;;;;15.00;15.00;;;;;;;;5068520;28;8856;-74
2023/09/14 07:46:49;;;;;;;;;11.50;11.50;;;;;;;;5068710;28;9657;-73
2023/09/14 07:49:16;;;;;;;;;17.00;14.75;;;;;;;;5068800;28;8840;-72
2023/09/14 07:51:44;;;;;;;;;14.50;14.25;;;;;;;;5068828;28;9603;-73
2023/09/14 07:54:11;;;;;;;;;19.00;19.00;;;;;;;;5068429;28;8852;-71
2023/09/14 07:56:39;;;;;;;;;15.75;14.00;;;;;;;;5068726;28;8887;-74
2023/09/14 07:59:06;;;;;;;;;17.50;17.00;;;;;;;;5067985;28;8851;-71
2023/09/14 08:01:33;;;;;;;;;24.50;24.00;;;;;;;;5068220;28;8900;-76
2023/09/14 08:04:02;;;;;;;;;20.75;19.75;;;;;;;;5067803;28;8895;-71
2023/09/14 08:06:30;;;;;;;;;22.75;20.50;;;;;;;;5068358;28;8833;-78
2023/09/14 08:08:57;;;;;;;;;12.75;12.75;;;;;;;;5069132;28;8844;-71
2023/09/14 08:11:26;;;;;;;;;14.50;14.50;;;;;;;;5069193;28;8874;-72
2023/09/14 08:13:55;;;;;;;;;12.50;12.50;;;;;;;;5067634;28;8840;-77
2023/09/14 08:16:23;;;;;;;;;13.50;13.50;;;;;;;;5067706;28;8849;-71
2023/09/14 08:18:52;;;;;;;;;16.40;13.20;;;;;;;;5067987;28;8957;-77
2023/09/14 08:21:19;;;;;;;;;10.60;10.60;;;;;;;;5068092;28;8856;-85
2023/09/14 08:23:46;;;;;;;;;11.60;11.60;;;;;;;;5056361;28;8868;-71
2023/09/14 08:26:13;;;;;;;;;9.80;9.80;;;;;;;;5067785;28;8852;-78
2023/09/14 08:28:40;;;;;;;;;10.80;10.80;;;;;;;;5068237;28;9623;-72
2023/09/14 08:31:09;;;;;;;;;9.80;9.80;;;;;;;;5067028;28;8788;-73
2023/09/14 08:33:36;;;;;;;;;9.20;9.20;;;;;;;;5067989;28;8864;-72
2023/09/14 08:36:03;;;;;;;;;11.00;10.60;;;;;;;;5066984;28;8865;-71
2023/09/14 08:38:31;;;;;;;;;13.40;11.00;;;;;;;;5067708;28;8994;-76
2023/09/14 08:41:01;;;;;;;;;12.00;11.20;;;;;;;;5067496;28;8832;-71
2023/09/14 08:43:29;;;;;;;;;8.60;8.60;;;;;;;;5068541;28;8964;-71
2023/09/14 08:45:58;;;;;;;;;7.40;7.40;;;;;;;;5066268;28;8876;-70
2023/09/14 08:48:31;;;;;;;;;10.80;10.80;;;;;;;;5068394;28;8844;-71
2023/09/14 08:50:59;;;;;;;;;11.20;9.60;;;;;;;;5067009;28;8957;-71
2023/09/14 08:53:28;;;;;;;;;9.00;9.00;;;;;;;;5067670;28;9040;-73
2023/09/14 08:55:56;;;;;;;;;7.00;7.00;;;;;;;;5067175;28;9639;-71
2023/09/14 08:58:23;;;;;;;;;10.00;10.00;;;;;;;;5067495;28;8864;-74
2023/09/14 09:00:51;;;;;;;;;9.00;9.00;;;;;;;;5066664;28;8793;-71
2023/09/14 09:03:19;;;;;;;;;7.20;7.20;;;;;;;;5067846;28;8894;-71
2023/09/14 09:05:47;;;;;;;;;6.00;6.00;;;;;;;;5067330;28;8825;-71
2023/09/14 09:08:15;;;;;;;;;9.40;9.40;;;;;;;;5068911;28;8848;-73
2023/09/14 09:10:43;;;;;;;;;7.40;7.40;;;;;;;;5069566;28;8929;-71
2023/09/14 09:13:10;;;;;;;;;7.00;7.00;;;;;;;;5069630;28;8856;-71
2023/09/14 09:15:38;;;;;;;;;7.80;7.80;;;;;;;;5057311;28;8856;-71
2023/09/14 09:18:07;;;;;;;;;4.00;4.00;;;;;;;;5070617;28;8856;-74
2023/09/14 09:20:35;;;;;;;;;8.80;7.40;;;;;;;;5067678;28;8980;-71
2023/09/14 09:23:05;;;;;;;;;7.80;7.40;;;;;;;;5068004;28;8877;-70
2023/09/14 09:25:44;;;;;;;;;5.60;5.60;;;;;;;;5068396;28;8893;-72
2023/09/14 09:28:11;;;;;;;;;6.20;6.20;;;;;;;;5066905;28;9611;-75
2023/09/14 09:30:42;;;;;;;;;5.00;5.00;;;;;;;;5062729;28;8785;-74
2023/09/14 09:33:09;;;;;;;;;6.40;6.40;;;;;;;;5066287;28;8844;-84
2023/09/14 09:35:36;;;;;;;;;6.80;6.20;;;;;;;;5067572;28;8860;-71
2023/09/14 09:38:13;;;;;;;;;5.80;4.80;;;;;;;;5067308;28;8852;-72
2023/09/14 09:40:42;;;;;;;;;5.00;5.00;;;;;;;;5060794;28;8844;-76
2023/09/14 09:43:10;;;;;;;;;7.20;5.00;;;;;;;;5055729;28;8828;-75
2023/09/14 09:45:41;;;;;;;;;4.80;4.80;;;;;;;;5061666;28;8842;-71
2023/09/14 09:48:12;;;;;;;;;9.20;5.00;;;;;;;;5071186;28;8868;-71
2023/09/14 09:50:39;;;;;;;;;2.00;2.00;;;;;;;;5071402;28;9575;-71
2023/09/14 09:53:11;;;;;;;;;2.80;2.80;;;;;;;;5070751;28;8856;-77
2023/09/14 09:55:38;;;;;;;;;3.00;3.00;;;;;;;;5070890;28;8840;-73
2023/09/14 09:58:07;;;;;;;;;3.80;3.80;;;;;;;;5071270;28;8878;-72
2023/09/14 10:00:39;;;;;;;;;1.20;0.00;;;;;;;;5070568;28;8800;-78
2023/09/14 10:03:06;;;;;;;;;3.40;3.40;;;;;;;;5071492;28;8990;-71
2023/09/14 10:05:35;;;;;;;;;3.20;3.20;;;;;;;;5070823;28;8986;-73
2023/09/14 10:08:03;;;;;;;;;3.60;3.60;;;;;;;;5071046;28;8836;-73
2023/09/14 10:10:34;;;;;;;;;3.80;3.80;;;;;;;;5071442;28;8840;-77
2023/09/14 10:13:03;;;;;;;;;3.20;3.20;;;;;;;;5070859;28;8848;-71
2023/09/14 10:15:34;;;;;;;;;3.80;3.20;;;;;;;;5069824;28;8856;-73
2023/09/14 10:18:02;;;;;;;;;4.80;4.00;;;;;;;;5073655;28;8844;-73
2023/09/14 10:20:30;;;;;;;;;3.00;3.00;;;;;;;;5074103;28;8961;-69
2023/09/14 10:22:58;;;;;;;;;4.00;4.00;;;;;;;;5070053;28;8868;-75
2023/09/14 10:25:25;;;;;;;;;2.60;2.60;;;;;;;;5070890;28;8852;-72
2023/09/14 10:27:54;;;;;;;;;3.00;1.40;;;;;;;;5070255;28;8845;-82
2023/09/14 10:30:22;;;;;;;;;3.00;3.00;;;;;;;;5070359;28;8883;-69
2023/09/14 10:32:52;;;;;;;;;2.20;2.20;;;;;;;;5069865;28;8860;-69
2023/09/14 10:35:20;;;;;;;;;2.60;2.60;;;;;;;;5070261;28;8856;-70
2023/09/14 10:37:47;;;;;;;;;0.20;0.20;;;;;;;;5070108;28;9218;-72
2023/09/14 10:40:15;;;;;;;;;3.00;3.00;;;;;;;;5070276;28;8851;-70
2023/09/14 10:42:42;;;;;;;;;3.80;3.80;;;;;;;;5070144;28;9579;-72
2023/09/14 10:45:12;;;;;;;;;1.60;1.60;;;;;;;;5071940;28;8963;-70
2023/09/14 10:47:42;;;;;;;;;2.20;2.20;;;;;;;;5072268;28;8840;-70
2023/09/14 10:50:10;;;;;;;;;2.00;2.00;;;;;;;;5072716;28;8856;-69
2023/09/14 10:52:40;;;;;;;;;3.00;2.60;;;;;;;;5072979;28;8872;-70
2023/09/14 10:55:08;;;;;;;;;2.00;2.00;;;;;;;;5072615;28;8949;-72
2023/09/14 10:57:38;;;;;;;;;2.00;2.00;;;;;;;;5069217;28;8925;-75
2023/09/14 11:00:07;;;;;;;;;2.60;2.40;;;;;;;;5070577;28;8975;-71
2023/09/14 11:03:00;;;;;;;;;3.60;3.60;;;;;;;;5050397;28;8830;-82
2023/09/14 11:05:40;;;;;;;;;1.00;1.00;;;;;;;;5050411;28;8870;-79
2023/09/14 11:08:07;;;;;;;;;2.00;2.00;;;;;;;;5049823;28;8854;-72
2023/09/14 11:10:37;;;;;;;;;3.40;3.00;;;;;;;;5049172;28;8860;-86
2023/09/14 11:13:28;;;;;;;;;2.60;1.60;;;;;;;;5049752;28;8855;-70
2023/09/14 11:15:57;;;;;;;;;3.80;3.80;;;;;;;;5040173;28;8878;-76
2023/09/14 11:18:56;;;;;;;;;3.00;3.00;;;;;;;;5050528;28;8831;-76
2023/09/14 11:21:43;;;;;;;;;3.00;3.00;;;;;;;;5050161;28;8874;-73
2023/09/14 11:24:12;;;;;;;;;3.60;2.80;;;;;;;;5050076;28;8854;-77
2023/09/14 11:26:47;;;;;;;;;1.60;1.60;;;;;;;;5049800;28;8827;-73
2023/09/14 11:29:14;;;;;;;;;2.00;2.00;;;;;;;;5050025;28;8854;-83
2023/09/14 11:31:42;;;;;;;;;2.00;2.00;;;;;;;;5062058;28;8927;-76
2023/09/14 11:34:14;;;;;;;;;1.60;1.60;;;;;;;;5069800;28;8848;-76
2023/09/14 11:36:43;;;;;;;;;3.00;3.00;;;;;;;;5057216;28;8953;-71
2023/09/14 11:39:13;;;;;;;;;3.00;3.00;;;;;;;;5068891;28;8876;-71
2023/09/14 11:41:57;;;;;;;;;2.00;2.00;;;;;;;;5068946;28;8849;-73
2023/09/14 11:44:27;;;;;;;;;2.00;2.00;;;;;;;;5068597;28;8945;-71
2023/09/14 11:46:58;;;;;;;;;3.40;2.60;;;;;;;;5068957;28;9021;-71
2023/09/14 11:49:29;;;;;;;;;3.00;2.40;;;;;;;;5068559;28;8879;-71
2023/09/14 11:51:59;;;;;;;;;3.20;3.20;;;;;;;;5068391;28;8844;-71
2023/09/14 11:54:30;;;;;;;;;3.00;3.00;;;;;;;;5068564;28;8916;-74
2023/09/14 11:57:01;;;;;;;;;1.40;1.40;;;;;;;;5068506;28;8841;-71
2023/09/14 11:59:30;;;;;;;;;2.20;2.20;;;;;;;;5069206;28;8922;-71
2023/09/14 12:02:00;;;;;;;;;2.80;2.80;;;;;;;;5067750;28;8831;-71
2023/09/14 12:04:30;;;;;;;;;2.60;2.60;;;;;;;;5069257;28;8856;-71
2023/09/14 12:06:59;;;;;;;;;3.60;3.60;;;;;;;;5067866;28;8864;-71
2023/09/14 12:09:39;;;;;;;;;3.40;3.40;;;;;;;;5068521;28;8874;-71
2023/09/14 12:12:10;;;;;;;;;1.60;1.60;;;;;;;;5068293;28;8867;-71
2023/09/14 12:14:40;;;;;;;;;3.00;3.00;;;;;;;;5068275;28;8848;-71
2023/09/14 12:17:20;;;;;;;;;2.80;2.80;;;;;;;;5068611;28;8844;-71
2023/09/14 12:19:50;;;;;;;;;4.00;4.00;;;;;;;;5068102;28;8862;-71
2023/09/14 12:22:19;;;;;;;;;3.00;3.00;;;;;;;;5070792;28;8848;-71
2023/09/14 12:24:48;;;;;;;;;2.60;2.60;;;;;;;;5071073;28;8864;-71
2023/09/14 12:27:15;;;;;;;;;3.60;2.20;;;;;;;;5070148;28;8848;-71
2023/09/14 12:29:43;;;;;;;;;3.00;3.00;;;;;;;;5070143;28;8871;-71
2023/09/14 12:32:11;;;;;;;;;3.20;3.20;;;;;;;;5070442;28;8817;-72
2023/09/14 12:34:40;;;;;;;;;2.80;2.80;;;;;;;;5068612;28;8833;-74
2023/09/14 12:37:09;;;;;;;;;2.40;2.20;;;;;;;;5068571;28;8854;-75
2023/09/14 12:39:38;;;;;;;;;3.40;3.40;;;;;;;;5068259;28;8829;-71
2023/09/14 12:42:06;;;;;;;;;3.80;3.80;;;;;;;;5067598;28;8866;-72
2023/09/14 12:44:33;;;;;;;;;3.80;3.80;;;;;;;;5065849;28;8934;-71
2023/09/14 12:47:00;;;;;;;;;3.40;3.40;;;;;;;;5067977;28;8935;-71
2023/09/14 12:49:28;;;;;;;;;4.40;4.40;;;;;;;;5067313;28;8844;-76
2023/09/14 12:51:55;;;;;;;;;2.40;2.40;;;;;;;;5067350;28;8856;-71
2023/09/14 12:54:28;;;;;;;;;1.20;1.20;;;;;;;;5078709;28;8848;-73
2023/09/14 12:56:55;;;;;;;;;3.20;3.20;;;;;;;;5077633;28;8866;-71
2023/09/14 12:59:22;;;;;;;;;4.40;4.40;;;;;;;;5067813;28;8917;-71
2023/09/14 13:01:50;;;;;;;;;2.00;2.00;;;;;;;;5066138;28;8836;-71
2023/09/14 13:04:17;;;;;;;;;3.60;3.00;;;;;;;;5067241;28;8871;-71
2023/09/14 13:06:44;;;;;;;;;6.80;5.00;;;;;;;;5066807;28;8841;-74
2023/09/14 13:09:18;;;;;;;;;2.00;2.00;;;;;;;;5067268;28;8927;-71
2023/09/14 13:11:53;;;;;;;;;2.80;2.80;;;;;;;;5067315;28;8820;-71
2023/09/14 13:14:22;;;;;;;;;2.40;2.40;;;;;;;;5067376;28;8848;-71
2023/09/14 13:16:58;;;;;;;;;3.00;3.00;;;;;;;;5067038;28;8849;-71
2023/09/14 13:19:27;;;;;;;;;2.20;2.20;;;;;;;;5067007;28;8856;-71
2023/09/14 13:22:03;;;;;;;;;1.80;1.80;;;;;;;;5065952;28;8860;-72
2023/09/14 13:24:30;;;;;;;;;2.60;1.60;;;;;;;;5067696;28;8987;-76
2023/09/14 13:26:59;;;;;;;;;3.20;3.20;;;;;;;;5066942;28;8856;-72
2023/09/14 13:29:26;;;;;;;;;2.00;2.00;;;;;;;;5066578;28;8864;-76
2023/09/14 13:31:53;;;;;;;;;3.00;3.00;;;;;;;;5055184;28;8825;-72
2023/09/14 13:34:20;;;;;;;;;1.80;1.80;;;;;;;;5066343;28;8856;-71
2023/09/14 13:36:52;;;;;;;;;2.00;2.00;;;;;;;;5067256;28;8834;-73
2023/09/14 13:39:19;;;;;;;;;0.00;0.00;;;;;;;;5067172;28;8868;-72
2023/09/14 13:41:46;;;;;;;;;2.60;2.60;;;;;;;;5066794;28;8871;-72
2023/09/14 13:44:15;;;;;;;;;2.00;2.00;;;;;;;;5066876;28;8824;-71
2023/09/14 13:46:42;;;;;;;;;1.80;1.00;;;;;;;;5066782;28;9704;-74
2023/09/14 13:49:12;;;;;;;;;2.20;2.00;;;;;;;;5066746;28;9607;-71
2023/09/14 13:51:40;;;;;;;;;1.80;1.80;;;;;;;;5067415;28;8844;-71
2023/09/14 13:54:07;;;;;;;;;2.00;2.00;;;;;;;;5067293;28;8832;-71
2023/09/14 13:56:37;;;;;;;;;2.60;2.60;;;;;;;;5067817;28;8863;-70
2023/09/14 13:59:04;;;;;;;;;2.80;2.80;;;;;;;;5069665;28;8866;-70
2023/09/14 14:01:33;;;;;;;;;2.80;2.80;;;;;;;;5070540;28;8816;-71
2023/09/14 14:04:00;;;;;;;;;2.00;2.00;;;;;;;;5069765;28;8856;-71
2023/09/14 14:06:28;;;;;;;;;3.40;3.40;;;;;;;;5071216;28;8983;-70
2023/09/14 14:08:55;;;;;;;;;1.40;1.40;;;;;;;;5069882;28;9231;-90
2023/09/14 14:11:22;;;;;;;;;1.00;1.00;;;;;;;;5067446;28;8872;-71
2023/09/14 14:13:49;;;;;;;;;2.00;2.00;;;;;;;;5066595;28;9030;-70
2023/09/14 14:16:17;;;;;;;;;2.00;2.00;;;;;;;;5067930;28;8837;-71
2023/09/14 14:18:45;;;;;;;;;1.40;1.40;;;;;;;;5066426;28;8975;-72
2023/09/14 14:21:12;;;;;;;;;2.60;2.00;;;;;;;;5066683;28;8868;-72
2023/09/14 14:23:40;;;;;;;;;2.00;2.00;;;;;;;;5066006;28;8902;-74
2023/09/14 14:26:07;;;;;;;;;2.00;2.00;;;;;;;;5067474;28;8849;-72
2023/09/14 14:28:35;;;;;;;;;1.00;1.00;;;;;;;;5067695;28;8875;-76
2023/09/14 14:31:02;;;;;;;;;2.00;2.00;;;;;;;;5068905;28;8813;-72
2023/09/14 14:33:30;;;;;;;;;3.40;1.80;;;;;;;;5058628;28;8879;-79
2023/09/14 14:35:58;;;;;;;;;2.00;2.00;;;;;;;;5069646;28;8871;-74
2023/09/14 14:38:25;;;;;;;;;3.20;3.20;;;;;;;;5070267;28;8848;-76
2023/09/14 14:40:53;;;;;;;;;1.40;1.20;;;;;;;;5071001;28;8872;-73
2023/09/14 14:43:21;;;;;;;;;3.00;3.00;;;;;;;;5081575;28;8986;-72
2023/09/14 14:45:48;;;;;;;;;2.00;2.00;;;;;;;;5069271;28;8860;-71
2023/09/14 14:48:15;;;;;;;;;2.00;2.00;;;;;;;;5070111;28;8849;-76
2023/09/14 14:50:44;;;;;;;;;2.20;2.20;;;;;;;;5069138;28;8852;-73
2023/09/14 14:53:15;;;;;;;;;1.00;1.00;;;;;;;;5069607;28;8848;-75
2023/09/14 14:55:43;;;;;;;;;2.20;2.00;;;;;;;;5069135;28;8913;-73
2023/09/14 14:58:10;;;;;;;;;0.00;0.00;;;;;;;;5070271;28;8840;-72
2023/09/14 15:00:37;;;;;;;;;3.00;3.00;;;;;;;;5069412;28;8839;-71
2023/09/14 15:03:04;;;;;;;;;2.40;2.40;;;;;;;;5070250;28;8968;-72
2023/09/14 15:05:34;;;;;;;;;4.80;3.00;;;;;;;;5070141;28;8841;-71